This is the latest recevied weather packets stored in our database for station/object K1LBG. If no packets are shown the sender has not sent any weather packets the latest 10 day(s).
| Time | Temp. | Humidity | Pressure | Rain* | Wind** | Luminosity | Snow |
|---|---|---|---|---|---|---|---|
| 1778006218 | 24.44° C | 55% | 1008.4 hPa | 0 mm | - | - | - |
| 1778005592 | 24.44° C | 54% | 1008.5 hPa | 0 mm | - | - | - |
| 1778005003 | 23.89° C | 56% | 1008.7 hPa | 0 mm | - | - | - |
| 1778004437 | 23.89° C | 57% | 1008.9 hPa | 0 mm | - | - | - |
| 1778001697 | 23.33° C | 62% | 1009.5 hPa | 0 mm | - | - | - |
| 1778000193 | 23.33° C | 59% | 1009.6 hPa | 0 mm | - | - | - |
| 1777998112 | 23.33° C | 58% | 1010 hPa | 0 mm | - | - | - |
| 1777997187 | 23.33° C | 59% | 1010.2 hPa | 0 mm | - | - | - |
| 1777995998 | 22.78° C | 63% | 1010.3 hPa | 0 mm | - | - | - |
| 1777994484 | 21.11° C | 64% | 1010.3 hPa | 0 mm | - | - | - |
| 1777992689 | 21.11° C | 64% | 1010.3 hPa | 0 mm | - | - | - |
| 1777991206 | 20.56° C | 64% | 1010.7 hPa | 0 mm | - | - | - |
| 1777990897 | 20.56° C | 67% | 1010.6 hPa | 0 mm | - | - | - |
| 1777989990 | 20° C | 67% | 1010.5 hPa | 0 mm | - | - | - |
| 1777986982 | 17.78° C | 76% | 1010.7 hPa | 0 mm | - | - | - |
| 1777986113 | 16.11° C | 77% | 1011.2 hPa | 0 mm | - | - | - |
| 1777984905 | 16.67° C | 76% | 1010.8 hPa | 0 mm | - | - | - |
| 1777984284 | 16.11° C | 77% | 1010.7 hPa | 0 mm | - | - | - |
| 1777983383 | 15° C | 81% | 1010.8 hPa | 0 mm | - | - | - |
| 1777982205 | 13.89° C | 84% | 1010.8 hPa | 0 mm | - | - | - |
| 1777981587 | 13.33° C | 86% | 1010.7 hPa | 0 mm | - | - | - |
| 1777979804 | 11.11° C | 91% | 1010.8 hPa | 0 mm | - | - | - |
| 1777977108 | 9.44° C | 94% | 1010.5 hPa | 0 mm | - | - | - |
| 1777975623 | 8.89° C | 94% | 1010.4 hPa | 0 mm | - | - | - |
| 1777974984 | 8.33° C | 94% | 1010.4 hPa | 0 mm | - | - | - |
* Rain latest hour (hover to see other rain measurements)
** Current wind speed in m/s (hover to see current wind gust speed)